createdAt,value
2022-10-09T03:01:21.244Z,8.70
2022-10-09T03:03:50.053Z,9.60
2022-10-09T03:06:20.923Z,9.13
2022-10-09T03:08:51.327Z,8.23
2022-10-09T03:11:22.879Z,8.40
2022-10-09T03:13:54.361Z,8.57
2022-10-09T03:16:26.927Z,8.80
2022-10-09T03:18:55.878Z,8.20
2022-10-09T03:21:27.488Z,7.93
2022-10-09T03:23:56.606Z,8.93
2022-10-09T03:26:27.539Z,8.43
2022-10-09T03:28:57.125Z,8.00
2022-10-09T03:34:17.181Z,8.17
2022-10-09T03:36:45.774Z,7.40
2022-10-09T03:39:14.141Z,8.50
2022-10-09T03:41:42.614Z,7.70
2022-10-09T03:44:11.115Z,7.70
2022-10-09T03:46:41.179Z,8.17
2022-10-09T03:49:09.762Z,7.90
2022-10-09T03:51:38.444Z,7.73
2022-10-09T03:54:07.461Z,8.13
2022-10-09T03:56:35.815Z,7.00
2022-10-09T03:59:05.683Z,7.97
2022-10-09T04:01:34.487Z,7.97
2022-10-09T04:04:04.368Z,7.37
2022-10-09T04:06:32.861Z,7.50
2022-10-09T04:09:01.543Z,8.73
2022-10-09T04:11:29.924Z,7.77
2022-10-09T04:13:58.277Z,7.30
2022-10-09T04:16:26.748Z,7.27
2022-10-09T04:18:55.118Z,7.40
2022-10-09T04:21:24.883Z,8.70
2022-10-09T04:23:53.624Z,7.40
2022-10-09T04:26:22.032Z,7.77
2022-10-09T04:28:50.421Z,8.27
2022-10-09T04:31:18.938Z,8.47
2022-10-09T04:33:47.286Z,7.47
2022-10-09T04:36:15.614Z,8.53
2022-10-09T04:38:45.333Z,8.60
2022-10-09T04:41:14.371Z,8.83
2022-10-09T04:43:42.692Z,6.87
2022-10-09T04:46:14.867Z,8.10
2022-10-09T04:48:46.462Z,7.70
2022-10-09T04:51:15.939Z,7.37
2022-10-09T04:53:46.516Z,7.10
2022-10-09T04:56:18.031Z,7.60
2022-10-09T04:58:48.164Z,7.07
2022-10-09T05:01:19.555Z,7.97
2022-10-09T05:03:48.058Z,7.63
2022-10-09T05:06:18.060Z,7.23
2022-10-09T05:08:48.392Z,7.83
2022-10-09T05:11:19.415Z,7.80
2022-10-09T05:13:51.407Z,7.13
2022-10-09T05:16:23.198Z,7.17
2022-10-09T05:18:54.052Z,8.20
2022-10-09T05:21:23.540Z,9.27
2022-10-09T05:23:55.060Z,7.83
2022-10-09T05:26:26.223Z,8.40
2022-10-09T05:28:54.868Z,7.47
2022-10-09T05:31:25.996Z,8.07
2022-10-09T05:33:55.032Z,7.83
2022-10-09T05:36:23.820Z,7.80
2022-10-09T05:38:53.509Z,8.40
2022-10-09T05:41:21.876Z,7.77
2022-10-09T05:43:51.523Z,9.47
2022-10-09T05:46:23.442Z,7.90
2022-10-09T05:48:54.966Z,8.10
2022-10-09T05:51:26.524Z,8.50
2022-10-09T05:53:57.733Z,8.53
2022-10-09T05:56:28.629Z,8.40
2022-10-09T05:58:59.322Z,8.67
2022-10-09T06:01:30.456Z,9.10
2022-10-09T06:04:00.739Z,8.03
2022-10-09T06:06:31.786Z,8.37
2022-10-09T06:09:01.582Z,8.70
2022-10-09T06:11:32.502Z,8.27
2022-10-09T06:14:02.712Z,10.17
2022-10-09T06:16:34.953Z,8.90
2022-10-09T06:19:04.654Z,8.97
2022-10-09T06:21:33.933Z,9.33
2022-10-09T06:24:06.166Z,8.50
2022-10-09T06:26:35.664Z,8.53
2022-10-09T06:29:04.972Z,7.33
2022-10-09T06:31:34.144Z,8.90
2022-10-09T06:34:04.850Z,7.73
2022-10-09T06:36:35.935Z,7.00
2022-10-09T06:39:08.483Z,6.90
2022-10-09T06:41:37.509Z,7.30
2022-10-09T06:44:24.196Z,7.73
2022-10-09T06:46:52.894Z,6.47
2022-10-09T06:49:21.338Z,6.73
2022-10-09T06:51:50.000Z,7.40
2022-10-09T06:54:19.746Z,6.80
2022-10-09T06:56:48.176Z,7.50
2022-10-09T06:59:16.650Z,8.03
2022-10-09T07:01:45.139Z,6.00
2022-10-09T07:04:17.725Z,6.10
2022-10-09T07:06:47.845Z,6.67
2022-10-09T07:09:17.425Z,6.53
2022-10-09T07:11:50.056Z,5.70
2022-10-09T07:14:19.185Z,5.90
2022-10-09T07:16:49.980Z,6.83
2022-10-09T07:19:19.908Z,6.07
2022-10-09T07:21:50.519Z,5.67
2022-10-09T07:24:20.635Z,6.60
2022-10-09T07:26:51.063Z,6.33
2022-10-09T07:29:20.701Z,6.43
2022-10-09T07:31:49.904Z,6.77
2022-10-09T07:34:18.343Z,6.27
2022-10-09T07:36:46.801Z,5.67
2022-10-09T07:39:15.114Z,5.90
2022-10-09T07:41:44.116Z,5.97
2022-10-09T07:44:13.852Z,5.30
2022-10-09T07:46:42.255Z,5.27
2022-10-09T07:49:10.754Z,4.57
2022-10-09T07:51:39.369Z,4.83
2022-10-09T07:54:07.867Z,4.80
2022-10-09T07:56:38.619Z,5.40
2022-10-09T07:59:09.731Z,3.83
2022-10-09T08:01:40.816Z,4.50
2022-10-09T08:04:09.808Z,4.10
2022-10-09T08:06:38.288Z,4.67
2022-10-09T08:09:09.142Z,4.90
2022-10-09T08:11:40.644Z,3.50
2022-10-09T08:14:13.169Z,3.90
2022-10-09T08:16:45.160Z,4.27
2022-10-09T08:19:13.528Z,3.47
2022-10-09T08:21:41.920Z,3.47
2022-10-09T08:24:13.089Z,3.67
2022-10-09T08:26:42.494Z,3.43
2022-10-09T08:29:13.916Z,2.73
2022-10-09T08:31:42.729Z,3.40
2022-10-09T08:34:12.476Z,3.13
2022-10-09T08:36:40.969Z,3.50
2022-10-09T08:39:09.403Z,4.20
2022-10-09T08:41:45.336Z,3.47
2022-10-09T08:44:20.455Z,3.30
2022-10-09T08:47:00.593Z,3.73
2022-10-09T08:49:38.364Z,3.70
2022-10-09T08:52:22.952Z,3.13
2022-10-09T08:54:52.413Z,3.80
2022-10-09T08:57:24.341Z,3.53
2022-10-09T08:59:52.750Z,3.30
2022-10-09T09:02:37.176Z,3.20
2022-10-09T09:05:31.466Z,3.00
2022-10-09T09:08:09.081Z,2.83
2022-10-09T09:10:44.757Z,3.37
2022-10-09T09:13:36.315Z,2.87
2022-10-09T09:16:11.551Z,3.27
2022-10-09T09:18:46.567Z,3.07
2022-10-09T09:21:32.868Z,3.67
2022-10-09T09:24:04.890Z,2.53
2022-10-09T09:26:33.287Z,2.60
2022-10-09T09:29:06.365Z,2.60
2022-10-09T09:31:38.514Z,3.10
2022-10-09T09:34:12.944Z,2.27
2022-10-09T09:36:50.369Z,2.70
2022-10-09T09:40:15.033Z,2.63
2022-10-09T09:42:17.616Z,2.87
2022-10-09T09:44:54.973Z,3.03
2022-10-09T09:47:29.128Z,2.60
2022-10-09T09:50:00.967Z,3.27
2022-10-09T09:52:36.819Z,2.47
2022-10-09T09:55:06.966Z,3.00
2022-10-09T09:57:39.923Z,3.00
2022-10-09T10:00:20.358Z,3.10
2022-10-09T10:02:49.014Z,2.60
2022-10-09T10:05:26.216Z,2.70
2022-10-09T10:07:57.760Z,3.10
2022-10-09T10:10:28.525Z,2.57
2022-10-09T10:12:59.268Z,2.97
2022-10-09T10:15:31.069Z,3.00
2022-10-09T10:18:03.867Z,2.80
2022-10-09T10:20:34.600Z,2.93
2022-10-09T10:23:04.379Z,2.73
2022-10-09T10:25:35.314Z,2.47
2022-10-09T10:28:13.944Z,2.83
2022-10-09T10:30:43.986Z,2.63
2022-10-09T10:33:21.826Z,2.60
2022-10-09T10:35:53.788Z,2.27
2022-10-09T10:38:31.229Z,2.33
2022-10-09T10:41:12.669Z,2.60
2022-10-09T10:43:45.802Z,2.43
2022-10-09T10:46:23.699Z,1.80
2022-10-09T10:48:52.324Z,2.33
2022-10-09T10:52:01.496Z,2.50
2022-10-09T10:54:39.032Z,2.50
2022-10-09T10:57:17.825Z,2.70
2022-10-09T11:00:03.956Z,2.60
2022-10-09T11:03:27.867Z,2.37
2022-10-09T11:06:00.447Z,2.33
2022-10-09T11:08:51.036Z,2.70
2022-10-09T11:11:28.614Z,2.33
2022-10-09T11:14:08.349Z,2.13
2022-10-09T11:17:01.434Z,2.60
2022-10-09T11:19:54.301Z,3.20
2022-10-09T11:22:36.738Z,2.77
2022-10-09T11:25:21.371Z,2.10
2022-10-09T11:27:56.036Z,2.20
2022-10-09T11:30:26.605Z,2.23
2022-10-09T11:33:03.719Z,2.30
2022-10-09T11:35:40.614Z,2.50
2022-10-09T11:38:26.445Z,2.33
2022-10-09T11:40:57.832Z,2.50
2022-10-09T11:44:08.896Z,2.53
2022-10-09T11:46:50.221Z,2.57
2022-10-09T11:49:26.730Z,2.17
2022-10-09T11:52:01.910Z,2.33
2022-10-09T11:54:30.875Z,2.37
2022-10-09T11:57:02.709Z,2.87
2022-10-09T11:59:36.946Z,2.57
